sensor_id;sensor_type;location;lat;lon;timestamp;temperature;humidity
21823;DHT22;11074;48.596;9.238;2023-08-08T00:01:06;13.00;99.90
21823;DHT22;11074;48.596;9.238;2023-08-08T00:03:32;12.90;99.90
21823;DHT22;11074;48.596;9.238;2023-08-08T00:05:58;12.90;99.90
21823;DHT22;11074;48.596;9.238;2023-08-08T00:08:23;12.90;99.90
21823;DHT22;11074;48.596;9.238;2023-08-08T00:10:49;12.90;99.90
21823;DHT22;11074;48.596;9.238;2023-08-08T00:13:15;12.90;99.90
21823;DHT22;11074;48.596;9.238;2023-08-08T00:15:41;12.90;99.90
21823;DHT22;11074;48.596;9.238;2023-08-08T00:18:07;12.90;99.90
21823;DHT22;11074;48.596;9.238;2023-08-08T00:20:32;12.90;99.90
21823;DHT22;11074;48.596;9.238;2023-08-08T00:22:58;12.90;99.90
21823;DHT22;11074;48.596;9.238;2023-08-08T00:25:24;12.90;99.90
21823;DHT22;11074;48.596;9.238;2023-08-08T00:27:50;12.90;99.90
21823;DHT22;11074;48.596;9.238;2023-08-08T00:30:16;12.90;99.90
21823;DHT22;11074;48.596;9.238;2023-08-08T00:32:42;12.80;99.90
21823;DHT22;11074;48.596;9.238;2023-08-08T00:35:08;13.00;99.90
21823;DHT22;11074;48.596;9.238;2023-08-08T00:37:34;13.20;99.90
21823;DHT22;11074;48.596;9.238;2023-08-08T00:40:00;13.10;99.90
21823;DHT22;11074;48.596;9.238;2023-08-08T00:42:25;13.10;99.90
21823;DHT22;11074;48.596;9.238;2023-08-08T00:44:51;13.10;99.90
21823;DHT22;11074;48.596;9.238;2023-08-08T00:47:17;13.10;99.90
21823;DHT22;11074;48.596;9.238;2023-08-08T00:49:43;13.00;99.90
21823;DHT22;11074;48.596;9.238;2023-08-08T00:52:12;13.10;99.90
21823;DHT22;11074;48.596;9.238;2023-08-08T00:54:38;13.10;99.90
21823;DHT22;11074;48.596;9.238;2023-08-08T00:57:04;13.00;99.90
21823;DHT22;11074;48.596;9.238;2023-08-08T00:59:31;13.00;99.90
21823;DHT22;11074;48.596;9.238;2023-08-08T01:01:58;13.10;99.90
21823;DHT22;11074;48.596;9.238;2023-08-08T01:04:25;13.00;99.90
21823;DHT22;11074;48.596;9.238;2023-08-08T01:09:50;13.00;99.90
21823;DHT22;11074;48.596;9.238;2023-08-08T01:12:20;13.00;99.90
21823;DHT22;11074;48.596;9.238;2023-08-08T01:14:48;12.90;99.90
21823;DHT22;11074;48.596;9.238;2023-08-08T01:17:14;13.00;99.90
21823;DHT22;11074;48.596;9.238;2023-08-08T01:19:40;13.00;99.90
21823;DHT22;11074;48.596;9.238;2023-08-08T01:22:13;13.00;99.90
21823;DHT22;11074;48.596;9.238;2023-08-08T01:24:45;13.00;99.90
21823;DHT22;11074;48.596;9.238;2023-08-08T01:27:11;13.00;99.90
21823;DHT22;11074;48.596;9.238;2023-08-08T01:29:37;13.00;99.90
21823;DHT22;11074;48.596;9.238;2023-08-08T01:32:04;13.00;99.90
21823;DHT22;11074;48.596;9.238;2023-08-08T01:34:30;13.00;99.90
21823;DHT22;11074;48.596;9.238;2023-08-08T01:36:59;13.10;99.90
21823;DHT22;11074;48.596;9.238;2023-08-08T01:39:38;13.10;99.90
21823;DHT22;11074;48.596;9.238;2023-08-08T01:42:06;13.10;99.90
21823;DHT22;11074;48.596;9.238;2023-08-08T01:44:33;13.00;99.90
21823;DHT22;11074;48.596;9.238;2023-08-08T01:47:00;13.00;99.90
21823;DHT22;11074;48.596;9.238;2023-08-08T01:49:26;13.00;99.90
21823;DHT22;11074;48.596;9.238;2023-08-08T01:51:52;13.00;99.90
21823;DHT22;11074;48.596;9.238;2023-08-08T01:54:18;13.00;99.90
21823;DHT22;11074;48.596;9.238;2023-08-08T01:56:45;12.90;99.90
21823;DHT22;11074;48.596;9.238;2023-08-08T01:59:10;13.00;99.90
21823;DHT22;11074;48.596;9.238;2023-08-08T02:01:36;13.00;99.90
21823;DHT22;11074;48.596;9.238;2023-08-08T02:04:02;13.00;99.90
21823;DHT22;11074;48.596;9.238;2023-08-08T02:06:28;12.90;99.90
21823;DHT22;11074;48.596;9.238;2023-08-08T02:08:53;12.90;99.90
21823;DHT22;11074;48.596;9.238;2023-08-08T02:11:19;12.80;99.90
21823;DHT22;11074;48.596;9.238;2023-08-08T02:13:47;12.80;99.90
21823;DHT22;11074;48.596;9.238;2023-08-08T02:16:12;12.80;99.90
21823;DHT22;11074;48.596;9.238;2023-08-08T02:18:38;12.90;99.90
21823;DHT22;11074;48.596;9.238;2023-08-08T02:21:09;12.90;99.90
21823;DHT22;11074;48.596;9.238;2023-08-08T02:23:35;12.80;99.90
21823;DHT22;11074;48.596;9.238;2023-08-08T02:26:01;12.80;99.90
21823;DHT22;11074;48.596;9.238;2023-08-08T02:28:27;12.80;99.90
21823;DHT22;11074;48.596;9.238;2023-08-08T02:30:53;12.80;99.90
21823;DHT22;11074;48.596;9.238;2023-08-08T02:33:19;12.90;99.90
21823;DHT22;11074;48.596;9.238;2023-08-08T02:35:45;12.90;99.90
21823;DHT22;11074;48.596;9.238;2023-08-08T02:38:11;12.90;99.90
21823;DHT22;11074;48.596;9.238;2023-08-08T02:40:36;12.80;99.90
21823;DHT22;11074;48.596;9.238;2023-08-08T02:43:04;12.90;99.90
21823;DHT22;11074;48.596;9.238;2023-08-08T02:45:29;12.90;99.90
21823;DHT22;11074;48.596;9.238;2023-08-08T02:47:55;12.80;99.90
21823;DHT22;11074;48.596;9.238;2023-08-08T02:50:21;12.90;99.90
21823;DHT22;11074;48.596;9.238;2023-08-08T02:52:47;12.80;99.90
21823;DHT22;11074;48.596;9.238;2023-08-08T02:55:13;12.90;99.90
21823;DHT22;11074;48.596;9.238;2023-08-08T02:57:39;12.90;99.90
21823;DHT22;11074;48.596;9.238;2023-08-08T03:00:05;12.90;99.90
21823;DHT22;11074;48.596;9.238;2023-08-08T03:02:33;12.80;99.90
21823;DHT22;11074;48.596;9.238;2023-08-08T03:04:59;12.80;99.90
21823;DHT22;11074;48.596;9.238;2023-08-08T03:07:25;12.80;99.90
21823;DHT22;11074;48.596;9.238;2023-08-08T03:09:51;12.80;99.90
21823;DHT22;11074;48.596;9.238;2023-08-08T03:12:16;12.70;99.90
21823;DHT22;11074;48.596;9.238;2023-08-08T03:14:42;12.70;99.90
21823;DHT22;11074;48.596;9.238;2023-08-08T03:17:08;12.70;99.90
21823;DHT22;11074;48.596;9.238;2023-08-08T03:19:33;12.80;99.90
21823;DHT22;11074;48.596;9.238;2023-08-08T03:21:59;12.80;99.90
21823;DHT22;11074;48.596;9.238;2023-08-08T03:24:25;12.80;99.90
21823;DHT22;11074;48.596;9.238;2023-08-08T03:26:50;12.70;99.90
21823;DHT22;11074;48.596;9.238;2023-08-08T03:29:16;12.70;99.90
21823;DHT22;11074;48.596;9.238;2023-08-08T03:31:42;12.70;99.90
21823;DHT22;11074;48.596;9.238;2023-08-08T03:34:07;12.70;99.90
21823;DHT22;11074;48.596;9.238;2023-08-08T03:36:33;12.70;99.90
21823;DHT22;11074;48.596;9.238;2023-08-08T03:38:59;12.70;99.90
21823;DHT22;11074;48.596;9.238;2023-08-08T03:41:24;12.80;99.90
21823;DHT22;11074;48.596;9.238;2023-08-08T03:43:50;12.70;99.90
21823;DHT22;11074;48.596;9.238;2023-08-08T03:46:16;12.70;99.90
21823;DHT22;11074;48.596;9.238;2023-08-08T03:48:41;12.70;99.90
21823;DHT22;11074;48.596;9.238;2023-08-08T03:51:07;12.70;99.90
21823;DHT22;11074;48.596;9.238;2023-08-08T03:53:33;12.80;99.90
21823;DHT22;11074;48.596;9.238;2023-08-08T03:55:58;12.80;99.90
21823;DHT22;11074;48.596;9.238;2023-08-08T03:58:24;12.80;99.90
21823;DHT22;11074;48.596;9.238;2023-08-08T04:00:50;12.80;99.90
21823;DHT22;11074;48.596;9.238;2023-08-08T04:03:17;12.80;99.90
21823;DHT22;11074;48.596;9.238;2023-08-08T04:05:47;12.80;99.90
21823;DHT22;11074;48.596;9.238;2023-08-08T04:08:16;12.90;99.90
21823;DHT22;11074;48.596;9.238;2023-08-08T04:10:43;12.90;99.90
21823;DHT22;11074;48.596;9.238;2023-08-08T04:13:12;12.90;99.90
21823;DHT22;11074;48.596;9.238;2023-08-08T04:15:38;12.90;99.90
21823;DHT22;11074;48.596;9.238;2023-08-08T04:18:04;12.90;99.90
21823;DHT22;11074;48.596;9.238;2023-08-08T04:20:32;12.90;99.90
21823;DHT22;11074;48.596;9.238;2023-08-08T04:22:59;13.00;99.90
21823;DHT22;11074;48.596;9.238;2023-08-08T04:25:25;12.90;99.90
21823;DHT22;11074;48.596;9.238;2023-08-08T04:27:52;12.90;99.90
21823;DHT22;11074;48.596;9.238;2023-08-08T04:30:18;13.00;99.90
21823;DHT22;11074;48.596;9.238;2023-08-08T04:32:43;13.00;99.90
21823;DHT22;11074;48.596;9.238;2023-08-08T04:35:09;13.00;99.90
21823;DHT22;11074;48.596;9.238;2023-08-08T04:37:35;13.00;99.90
21823;DHT22;11074;48.596;9.238;2023-08-08T04:40:00;13.10;99.90
21823;DHT22;11074;48.596;9.238;2023-08-08T04:42:26;13.00;99.90
21823;DHT22;11074;48.596;9.238;2023-08-08T04:44:52;13.00;99.90
21823;DHT22;11074;48.596;9.238;2023-08-08T04:47:17;13.10;99.90
21823;DHT22;11074;48.596;9.238;2023-08-08T04:49:43;13.00;99.90
21823;DHT22;11074;48.596;9.238;2023-08-08T04:52:09;13.00;99.90
21823;DHT22;11074;48.596;9.238;2023-08-08T04:54:34;13.00;99.90
21823;DHT22;11074;48.596;9.238;2023-08-08T04:57:00;13.00;99.90
21823;DHT22;11074;48.596;9.238;2023-08-08T04:59:26;13.00;99.90
21823;DHT22;11074;48.596;9.238;2023-08-08T05:01:51;13.10;99.90
21823;DHT22;11074;48.596;9.238;2023-08-08T05:04:18;13.00;99.90
21823;DHT22;11074;48.596;9.238;2023-08-08T05:06:43;13.00;99.90
21823;DHT22;11074;48.596;9.238;2023-08-08T05:09:09;13.00;99.90
21823;DHT22;11074;48.596;9.238;2023-08-08T05:11:35;12.90;99.90
21823;DHT22;11074;48.596;9.238;2023-08-08T05:14:01;13.00;99.90
21823;DHT22;11074;48.596;9.238;2023-08-08T05:16:27;13.00;99.90
21823;DHT22;11074;48.596;9.238;2023-08-08T05:18:53;13.10;99.90
21823;DHT22;11074;48.596;9.238;2023-08-08T05:21:19;13.10;99.90
21823;DHT22;11074;48.596;9.238;2023-08-08T05:23:46;13.20;99.90
21823;DHT22;11074;48.596;9.238;2023-08-08T05:26:13;13.20;99.90
21823;DHT22;11074;48.596;9.238;2023-08-08T05:28:40;13.30;99.90
21823;DHT22;11074;48.596;9.238;2023-08-08T05:31:05;13.30;99.90
21823;DHT22;11074;48.596;9.238;2023-08-08T05:33:31;13.20;99.90
21823;DHT22;11074;48.596;9.238;2023-08-08T05:35:57;13.20;99.90
21823;DHT22;11074;48.596;9.238;2023-08-08T05:38:22;13.20;99.90
21823;DHT22;11074;48.596;9.238;2023-08-08T05:40:48;13.30;99.90
21823;DHT22;11074;48.596;9.238;2023-08-08T05:43:14;13.70;99.90
21823;DHT22;11074;48.596;9.238;2023-08-08T05:45:44;13.80;99.90
21823;DHT22;11074;48.596;9.238;2023-08-08T05:48:10;13.80;99.90
21823;DHT22;11074;48.596;9.238;2023-08-08T05:50:39;13.70;99.90
21823;DHT22;11074;48.596;9.238;2023-08-08T05:53:05;13.70;99.90
21823;DHT22;11074;48.596;9.238;2023-08-08T05:55:32;13.80;99.90
21823;DHT22;11074;48.596;9.238;2023-08-08T05:57:58;13.80;99.90
21823;DHT22;11074;48.596;9.238;2023-08-08T06:00:24;13.80;99.90
21823;DHT22;11074;48.596;9.238;2023-08-08T06:02:49;13.70;99.90
21823;DHT22;11074;48.596;9.238;2023-08-08T06:05:16;13.70;99.90
21823;DHT22;11074;48.596;9.238;2023-08-08T06:07:43;13.60;99.90
21823;DHT22;11074;48.596;9.238;2023-08-08T06:10:09;13.60;99.90
21823;DHT22;11074;48.596;9.238;2023-08-08T06:12:36;13.60;99.90
21823;DHT22;11074;48.596;9.238;2023-08-08T06:15:02;13.60;99.90
21823;DHT22;11074;48.596;9.238;2023-08-08T06:17:29;13.60;99.90
21823;DHT22;11074;48.596;9.238;2023-08-08T06:19:55;13.60;99.90
21823;DHT22;11074;48.596;9.238;2023-08-08T06:22:22;13.70;99.90
21823;DHT22;11074;48.596;9.238;2023-08-08T06:24:48;13.80;99.90
21823;DHT22;11074;48.596;9.238;2023-08-08T06:27:14;13.90;99.90
21823;DHT22;11074;48.596;9.238;2023-08-08T06:29:40;14.00;99.90
21823;DHT22;11074;48.596;9.238;2023-08-08T06:32:06;14.20;99.90
21823;DHT22;11074;48.596;9.238;2023-08-08T06:34:31;14.30;99.90
21823;DHT22;11074;48.596;9.238;2023-08-08T06:36:57;14.40;99.90
21823;DHT22;11074;48.596;9.238;2023-08-08T06:39:23;14.50;99.90
21823;DHT22;11074;48.596;9.238;2023-08-08T06:41:48;14.60;99.90
21823;DHT22;11074;48.596;9.238;2023-08-08T06:44:14;14.80;99.90
21823;DHT22;11074;48.596;9.238;2023-08-08T06:46:40;14.90;99.90
21823;DHT22;11074;48.596;9.238;2023-08-08T06:49:06;15.00;99.90
21823;DHT22;11074;48.596;9.238;2023-08-08T06:51:32;15.00;99.90
21823;DHT22;11074;48.596;9.238;2023-08-08T06:53:58;15.10;99.90
21823;DHT22;11074;48.596;9.238;2023-08-08T06:56:24;15.20;99.90
21823;DHT22;11074;48.596;9.238;2023-08-08T06:58:51;15.20;99.90
21823;DHT22;11074;48.596;9.238;2023-08-08T07:01:18;15.30;99.90
21823;DHT22;11074;48.596;9.238;2023-08-08T07:03:44;15.30;99.90
21823;DHT22;11074;48.596;9.238;2023-08-08T07:06:10;15.40;99.90
21823;DHT22;11074;48.596;9.238;2023-08-08T07:08:36;15.40;99.90
21823;DHT22;11074;48.596;9.238;2023-08-08T07:11:05;15.50;99.90
21823;DHT22;11074;48.596;9.238;2023-08-08T07:13:32;15.50;99.90
21823;DHT22;11074;48.596;9.238;2023-08-08T07:15:57;15.60;99.90
21823;DHT22;11074;48.596;9.238;2023-08-08T07:18:23;15.60;99.90
21823;DHT22;11074;48.596;9.238;2023-08-08T07:20:49;15.70;99.90
21823;DHT22;11074;48.596;9.238;2023-08-08T07:23:15;15.80;99.90
21823;DHT22;11074;48.596;9.238;2023-08-08T07:25:45;15.90;99.90
21823;DHT22;11074;48.596;9.238;2023-08-08T07:28:12;15.90;99.90
21823;DHT22;11074;48.596;9.238;2023-08-08T07:30:40;16.00;99.90
21823;DHT22;11074;48.596;9.238;2023-08-08T07:33:06;16.00;99.90
21823;DHT22;11074;48.596;9.238;2023-08-08T07:35:35;16.10;99.90
21823;DHT22;11074;48.596;9.238;2023-08-08T07:38:00;16.20;99.90
21823;DHT22;11074;48.596;9.238;2023-08-08T07:40:26;16.20;99.90
21823;DHT22;11074;48.596;9.238;2023-08-08T07:42:52;16.30;99.90
21823;DHT22;11074;48.596;9.238;2023-08-08T07:45:18;16.30;99.90
21823;DHT22;11074;48.596;9.238;2023-08-08T07:47:44;16.40;99.90
21823;DHT22;11074;48.596;9.238;2023-08-08T07:50:10;16.50;99.90
21823;DHT22;11074;48.596;9.238;2023-08-08T07:52:37;16.60;99.90
21823;DHT22;11074;48.596;9.238;2023-08-08T07:55:04;16.70;99.90
21823;DHT22;11074;48.596;9.238;2023-08-08T07:57:32;16.80;99.90
21823;DHT22;11074;48.596;9.238;2023-08-08T08:00:04;16.80;99.90
21823;DHT22;11074;48.596;9.238;2023-08-08T08:02:37;16.90;99.90
21823;DHT22;11074;48.596;9.238;2023-08-08T08:05:07;17.00;99.90
21823;DHT22;11074;48.596;9.238;2023-08-08T08:07:34;17.10;99.90
21823;DHT22;11074;48.596;9.238;2023-08-08T08:10:06;17.10;99.90
21823;DHT22;11074;48.596;9.238;2023-08-08T08:12:34;17.20;99.90
21823;DHT22;11074;48.596;9.238;2023-08-08T08:15:00;17.30;99.90
21823;DHT22;11074;48.596;9.238;2023-08-08T08:17:27;17.30;99.90
21823;DHT22;11074;48.596;9.238;2023-08-08T08:19:55;17.40;99.90
21823;DHT22;11074;48.596;9.238;2023-08-08T08:22:21;17.50;99.90
21823;DHT22;11074;48.596;9.238;2023-08-08T08:24:46;17.50;99.90
21823;DHT22;11074;48.596;9.238;2023-08-08T08:27:12;17.60;99.90
21823;DHT22;11074;48.596;9.238;2023-08-08T08:29:39;17.60;99.90
21823;DHT22;11074;48.596;9.238;2023-08-08T08:32:05;17.70;99.90
21823;DHT22;11074;48.596;9.238;2023-08-08T08:34:31;17.70;99.90
21823;DHT22;11074;48.596;9.238;2023-08-08T08:36:57;17.70;99.90
21823;DHT22;11074;48.596;9.238;2023-08-08T08:39:23;17.70;99.90
21823;DHT22;11074;48.596;9.238;2023-08-08T08:41:51;17.70;99.90
21823;DHT22;11074;48.596;9.238;2023-08-08T08:44:23;17.70;99.90
21823;DHT22;11074;48.596;9.238;2023-08-08T08:46:52;17.80;99.90
21823;DHT22;11074;48.596;9.238;2023-08-08T08:49:18;17.80;99.90
21823;DHT22;11074;48.596;9.238;2023-08-08T08:51:47;17.80;99.90
21823;DHT22;11074;48.596;9.238;2023-08-08T08:54:13;17.90;99.90
21823;DHT22;11074;48.596;9.238;2023-08-08T08:56:40;17.90;99.90
21823;DHT22;11074;48.596;9.238;2023-08-08T08:59:07;17.90;99.90
21823;DHT22;11074;48.596;9.238;2023-08-08T09:01:33;18.00;99.90
21823;DHT22;11074;48.596;9.238;2023-08-08T09:03:59;18.00;99.90
21823;DHT22;11074;48.596;9.238;2023-08-08T09:06:25;18.00;99.90
21823;DHT22;11074;48.596;9.238;2023-08-08T09:08:52;18.10;99.90
21823;DHT22;11074;48.596;9.238;2023-08-08T09:11:17;18.10;99.90
21823;DHT22;11074;48.596;9.238;2023-08-08T09:13:43;18.10;99.90
21823;DHT22;11074;48.596;9.238;2023-08-08T09:16:09;18.20;99.90
21823;DHT22;11074;48.596;9.238;2023-08-08T09:18:35;18.20;99.90
21823;DHT22;11074;48.596;9.238;2023-08-08T09:21:05;18.20;99.90
21823;DHT22;11074;48.596;9.238;2023-08-08T09:23:31;18.20;99.90
21823;DHT22;11074;48.596;9.238;2023-08-08T09:25:56;18.30;99.90
21823;DHT22;11074;48.596;9.238;2023-08-08T09:28:22;18.40;99.90
21823;DHT22;11074;48.596;9.238;2023-08-08T09:30:48;18.50;99.90
21823;DHT22;11074;48.596;9.238;2023-08-08T09:33:14;18.50;99.90
21823;DHT22;11074;48.596;9.238;2023-08-08T09:35:40;18.60;99.90
21823;DHT22;11074;48.596;9.238;2023-08-08T09:38:06;18.70;99.90
21823;DHT22;11074;48.596;9.238;2023-08-08T09:40:32;18.70;99.90
21823;DHT22;11074;48.596;9.238;2023-08-08T09:42:58;18.80;99.90
21823;DHT22;11074;48.596;9.238;2023-08-08T09:45:24;18.80;99.90
21823;DHT22;11074;48.596;9.238;2023-08-08T09:47:51;18.80;99.90
21823;DHT22;11074;48.596;9.238;2023-08-08T09:50:19;18.80;99.90
21823;DHT22;11074;48.596;9.238;2023-08-08T09:52:46;18.90;99.90
21823;DHT22;11074;48.596;9.238;2023-08-08T09:55:13;18.90;99.90
21823;DHT22;11074;48.596;9.238;2023-08-08T09:57:40;18.80;99.90
21823;DHT22;11074;48.596;9.238;2023-08-08T10:00:09;18.80;99.90
21823;DHT22;11074;48.596;9.238;2023-08-08T10:02:44;18.90;99.90
21823;DHT22;11074;48.596;9.238;2023-08-08T10:05:12;18.90;99.90
21823;DHT22;11074;48.596;9.238;2023-08-08T10:07:40;19.00;99.90
21823;DHT22;11074;48.596;9.238;2023-08-08T10:10:08;19.10;99.90
21823;DHT22;11074;48.596;9.238;2023-08-08T10:12:39;19.10;99.90
21823;DHT22;11074;48.596;9.238;2023-08-08T10:15:07;19.10;99.90
21823;DHT22;11074;48.596;9.238;2023-08-08T10:17:41;19.20;99.90
21823;DHT22;11074;48.596;9.238;2023-08-08T10:20:09;19.30;99.90
21823;DHT22;11074;48.596;9.238;2023-08-08T10:22:37;19.20;99.90
21823;DHT22;11074;48.596;9.238;2023-08-08T10:25:08;19.30;99.90
21823;DHT22;11074;48.596;9.238;2023-08-08T10:27:35;19.30;99.90
21823;DHT22;11074;48.596;9.238;2023-08-08T10:30:07;19.30;99.90
21823;DHT22;11074;48.596;9.238;2023-08-08T10:32:43;19.40;99.90
21823;DHT22;11074;48.596;9.238;2023-08-08T10:35:12;19.50;99.90
21823;DHT22;11074;48.596;9.238;2023-08-08T10:37:38;19.60;99.90
21823;DHT22;11074;48.596;9.238;2023-08-08T10:40:06;19.70;99.90
21823;DHT22;11074;48.596;9.238;2023-08-08T10:42:43;19.70;99.90
21823;DHT22;11074;48.596;9.238;2023-08-08T10:45:13;19.70;99.90
21823;DHT22;11074;48.596;9.238;2023-08-08T10:47:41;19.80;99.90
21823;DHT22;11074;48.596;9.238;2023-08-08T10:50:12;19.70;99.90
21823;DHT22;11074;48.596;9.238;2023-08-08T10:55:32;19.70;99.90
21823;DHT22;11074;48.596;9.238;2023-08-08T10:58:13;19.70;99.90
21823;DHT22;11074;48.596;9.238;2023-08-08T11:00:44;19.70;99.90
21823;DHT22;11074;48.596;9.238;2023-08-08T11:03:11;19.80;99.90
21823;DHT22;11074;48.596;9.238;2023-08-08T11:05:37;19.90;99.90
21823;DHT22;11074;48.596;9.238;2023-08-08T11:08:05;19.90;99.90
21823;DHT22;11074;48.596;9.238;2023-08-08T11:10:36;20.10;99.90
21823;DHT22;11074;48.596;9.238;2023-08-08T11:13:04;20.20;99.90
21823;DHT22;11074;48.596;9.238;2023-08-08T11:15:35;20.20;99.90
21823;DHT22;11074;48.596;9.238;2023-08-08T11:18:02;20.20;99.90
21823;DHT22;11074;48.596;9.238;2023-08-08T11:20:31;20.40;99.90
21823;DHT22;11074;48.596;9.238;2023-08-08T11:22:58;20.40;99.90
21823;DHT22;11074;48.596;9.238;2023-08-08T11:25:26;20.50;99.90
21823;DHT22;11074;48.596;9.238;2023-08-08T11:27:53;20.50;99.90
21823;DHT22;11074;48.596;9.238;2023-08-08T11:30:20;20.40;99.90
21823;DHT22;11074;48.596;9.238;2023-08-08T11:32:48;20.50;99.90
21823;DHT22;11074;48.596;9.238;2023-08-08T11:35:20;20.60;99.90
21823;DHT22;11074;48.596;9.238;2023-08-08T11:37:49;20.80;99.90
21823;DHT22;11074;48.596;9.238;2023-08-08T11:40:17;20.90;99.90
21823;DHT22;11074;48.596;9.238;2023-08-08T11:42:44;20.70;99.90
21823;DHT22;11074;48.596;9.238;2023-08-08T11:45:11;20.60;99.90
21823;DHT22;11074;48.596;9.238;2023-08-08T11:47:41;20.40;99.90
21823;DHT22;11074;48.596;9.238;2023-08-08T11:50:09;20.40;99.90
21823;DHT22;11074;48.596;9.238;2023-08-08T11:52:40;20.50;99.90
21823;DHT22;11074;48.596;9.238;2023-08-08T11:55:09;20.60;99.90
21823;DHT22;11074;48.596;9.238;2023-08-08T11:57:36;20.80;99.90
21823;DHT22;11074;48.596;9.238;2023-08-08T12:00:05;20.90;99.90
21823;DHT22;11074;48.596;9.238;2023-08-08T12:02:35;21.30;99.90
21823;DHT22;11074;48.596;9.238;2023-08-08T12:05:08;21.50;99.90
21823;DHT22;11074;48.596;9.238;2023-08-08T12:07:39;21.70;99.90
21823;DHT22;11074;48.596;9.238;2023-08-08T12:10:14;21.90;99.90
21823;DHT22;11074;48.596;9.238;2023-08-08T12:12:43;21.90;99.90
21823;DHT22;11074;48.596;9.238;2023-08-08T12:15:09;22.00;99.90
21823;DHT22;11074;48.596;9.238;2023-08-08T12:17:36;22.00;99.90
21823;DHT22;11074;48.596;9.238;2023-08-08T12:20:06;22.10;99.90
21823;DHT22;11074;48.596;9.238;2023-08-08T12:22:33;22.20;99.90
21823;DHT22;11074;48.596;9.238;2023-08-08T12:24:59;22.50;99.90
21823;DHT22;11074;48.596;9.238;2023-08-08T12:27:25;22.80;99.90
21823;DHT22;11074;48.596;9.238;2023-08-08T12:29:51;23.00;99.90
21823;DHT22;11074;48.596;9.238;2023-08-08T12:32:20;22.90;99.90
21823;DHT22;11074;48.596;9.238;2023-08-08T12:34:49;22.80;99.90
21823;DHT22;11074;48.596;9.238;2023-08-08T12:37:15;22.80;99.90
21823;DHT22;11074;48.596;9.238;2023-08-08T12:39:41;22.70;99.90
21823;DHT22;11074;48.596;9.238;2023-08-08T12:42:06;22.60;99.90
21823;DHT22;11074;48.596;9.238;2023-08-08T12:44:32;22.70;99.90
21823;DHT22;11074;48.596;9.238;2023-08-08T12:46:58;23.00;99.90
21823;DHT22;11074;48.596;9.238;2023-08-08T12:49:24;23.20;99.90
21823;DHT22;11074;48.596;9.238;2023-08-08T12:51:50;23.30;99.90
21823;DHT22;11074;48.596;9.238;2023-08-08T12:54:16;23.40;99.90
21823;DHT22;11074;48.596;9.238;2023-08-08T12:56:42;23.30;99.90
21823;DHT22;11074;48.596;9.238;2023-08-08T12:59:09;23.10;99.90
21823;DHT22;11074;48.596;9.238;2023-08-08T13:01:34;22.90;99.90
21823;DHT22;11074;48.596;9.238;2023-08-08T13:04:00;22.80;99.90
21823;DHT22;11074;48.596;9.238;2023-08-08T13:06:26;22.80;99.90
21823;DHT22;11074;48.596;9.238;2023-08-08T13:08:52;22.80;99.90
21823;DHT22;11074;48.596;9.238;2023-08-08T13:11:18;22.90;99.90
21823;DHT22;11074;48.596;9.238;2023-08-08T13:13:43;23.10;99.90
21823;DHT22;11074;48.596;9.238;2023-08-08T13:16:09;23.20;99.90
21823;DHT22;11074;48.596;9.238;2023-08-08T13:18:36;23.40;99.90
21823;DHT22;11074;48.596;9.238;2023-08-08T13:21:02;23.30;99.90
21823;DHT22;11074;48.596;9.238;2023-08-08T13:23:27;23.00;99.90
21823;DHT22;11074;48.596;9.238;2023-08-08T13:25:54;22.60;99.90
21823;DHT22;11074;48.596;9.238;2023-08-08T13:28:19;22.30;99.90
21823;DHT22;11074;48.596;9.238;2023-08-08T13:30:45;22.10;99.90
21823;DHT22;11074;48.596;9.238;2023-08-08T13:33:11;21.90;99.90
21823;DHT22;11074;48.596;9.238;2023-08-08T13:35:37;21.80;99.90
21823;DHT22;11074;48.596;9.238;2023-08-08T13:38:02;21.80;99.90
21823;DHT22;11074;48.596;9.238;2023-08-08T13:40:28;21.80;99.90
21823;DHT22;11074;48.596;9.238;2023-08-08T13:42:54;21.90;99.90
21823;DHT22;11074;48.596;9.238;2023-08-08T13:45:20;21.90;99.90
21823;DHT22;11074;48.596;9.238;2023-08-08T13:47:46;22.00;99.90
21823;DHT22;11074;48.596;9.238;2023-08-08T13:50:13;22.20;99.90
21823;DHT22;11074;48.596;9.238;2023-08-08T13:52:40;22.30;99.90
21823;DHT22;11074;48.596;9.238;2023-08-08T13:55:07;22.30;99.90
21823;DHT22;11074;48.596;9.238;2023-08-08T13:57:34;22.20;99.90
21823;DHT22;11074;48.596;9.238;2023-08-08T14:00:00;22.10;99.90
21823;DHT22;11074;48.596;9.238;2023-08-08T14:02:27;22.00;99.90
21823;DHT22;11074;48.596;9.238;2023-08-08T14:04:52;21.90;99.90
21823;DHT22;11074;48.596;9.238;2023-08-08T14:07:18;21.90;99.90
21823;DHT22;11074;48.596;9.238;2023-08-08T14:09:46;22.00;99.90
21823;DHT22;11074;48.596;9.238;2023-08-08T14:12:12;21.90;99.90
21823;DHT22;11074;48.596;9.238;2023-08-08T14:14:38;21.90;99.90
21823;DHT22;11074;48.596;9.238;2023-08-08T14:17:03;21.90;99.90
21823;DHT22;11074;48.596;9.238;2023-08-08T14:19:29;21.90;99.90
21823;DHT22;11074;48.596;9.238;2023-08-08T14:21:55;21.90;99.90
21823;DHT22;11074;48.596;9.238;2023-08-08T14:24:20;21.90;99.90
21823;DHT22;11074;48.596;9.238;2023-08-08T14:26:46;21.80;99.90
21823;DHT22;11074;48.596;9.238;2023-08-08T14:29:12;21.60;99.90
21823;DHT22;11074;48.596;9.238;2023-08-08T14:31:38;21.60;99.90
21823;DHT22;11074;48.596;9.238;2023-08-08T14:34:04;21.50;99.90
21823;DHT22;11074;48.596;9.238;2023-08-08T14:36:30;21.40;99.90
21823;DHT22;11074;48.596;9.238;2023-08-08T14:38:55;21.40;99.90
21823;DHT22;11074;48.596;9.238;2023-08-08T14:41:21;21.30;99.90
21823;DHT22;11074;48.596;9.238;2023-08-08T14:43:47;21.30;99.90
21823;DHT22;11074;48.596;9.238;2023-08-08T14:46:12;21.30;99.90
21823;DHT22;11074;48.596;9.238;2023-08-08T14:48:38;21.30;99.90
21823;DHT22;11074;48.596;9.238;2023-08-08T14:51:04;21.40;99.90
21823;DHT22;11074;48.596;9.238;2023-08-08T14:53:29;21.40;99.90
21823;DHT22;11074;48.596;9.238;2023-08-08T14:55:55;21.50;99.90
21823;DHT22;11074;48.596;9.238;2023-08-08T14:58:21;21.60;99.90
21823;DHT22;11074;48.596;9.238;2023-08-08T15:00:47;21.60;99.90
21823;DHT22;11074;48.596;9.238;2023-08-08T15:03:13;21.80;99.90
21823;DHT22;11074;48.596;9.238;2023-08-08T15:05:39;21.70;99.90
21823;DHT22;11074;48.596;9.238;2023-08-08T15:08:06;21.80;99.90
21823;DHT22;11074;48.596;9.238;2023-08-08T15:10:32;21.80;99.90
21823;DHT22;11074;48.596;9.238;2023-08-08T15:12:58;21.90;99.90
21823;DHT22;11074;48.596;9.238;2023-08-08T15:15:24;21.90;99.90
21823;DHT22;11074;48.596;9.238;2023-08-08T15:17:52;21.90;99.90
21823;DHT22;11074;48.596;9.238;2023-08-08T15:20:18;21.90;99.90
21823;DHT22;11074;48.596;9.238;2023-08-08T15:22:43;21.90;99.90
21823;DHT22;11074;48.596;9.238;2023-08-08T15:25:09;21.80;99.90
21823;DHT22;11074;48.596;9.238;2023-08-08T15:27:35;21.70;99.90
21823;DHT22;11074;48.596;9.238;2023-08-08T15:30:00;21.60;99.90
21823;DHT22;11074;48.596;9.238;2023-08-08T15:32:26;21.60;99.90